sensor_id;sensor_type;location;lat;lon;timestamp;P1;durP1;ratioP1;P2;durP2;ratioP2
3726;SDS011;1879;45.876;12.300;2024-02-23T00:00:20;53.87;;;48.30;;
3726;SDS011;1879;45.876;12.300;2024-02-23T00:02:47;48.67;;;43.97;;
3726;SDS011;1879;45.876;12.300;2024-02-23T00:05:14;48.37;;;43.03;;
3726;SDS011;1879;45.876;12.300;2024-02-23T00:07:41;45.53;;;40.97;;
3726;SDS011;1879;45.876;12.300;2024-02-23T00:10:09;46.67;;;41.90;;
3726;SDS011;1879;45.876;12.300;2024-02-23T00:12:36;42.80;;;38.20;;
3726;SDS011;1879;45.876;12.300;2024-02-23T00:15:03;42.77;;;38.73;;
3726;SDS011;1879;45.876;12.300;2024-02-23T00:17:31;41.50;;;37.37;;
3726;SDS011;1879;45.876;12.300;2024-02-23T00:19:57;45.77;;;41.00;;
3726;SDS011;1879;45.876;12.300;2024-02-23T00:22:24;39.50;;;35.30;;
3726;SDS011;1879;45.876;12.300;2024-02-23T00:24:51;41.63;;;37.60;;
3726;SDS011;1879;45.876;12.300;2024-02-23T00:27:20;38.10;;;34.27;;
3726;SDS011;1879;45.876;12.300;2024-02-23T00:29:47;37.67;;;33.77;;
3726;SDS011;1879;45.876;12.300;2024-02-23T00:32:13;36.00;;;32.50;;
3726;SDS011;1879;45.876;12.300;2024-02-23T00:34:40;37.50;;;33.40;;
3726;SDS011;1879;45.876;12.300;2024-02-23T00:37:08;40.17;;;35.80;;
3726;SDS011;1879;45.876;12.300;2024-02-23T00:39:35;42.23;;;37.83;;
3726;SDS011;1879;45.876;12.300;2024-02-23T00:42:02;40.67;;;36.47;;
3726;SDS011;1879;45.876;12.300;2024-02-23T00:44:31;40.47;;;36.20;;
3726;SDS011;1879;45.876;12.300;2024-02-23T00:46:58;42.57;;;37.33;;
3726;SDS011;1879;45.876;12.300;2024-02-23T00:49:26;43.70;;;39.17;;
3726;SDS011;1879;45.876;12.300;2024-02-23T00:51:53;40.43;;;36.37;;
3726;SDS011;1879;45.876;12.300;2024-02-23T00:54:21;43.97;;;39.43;;
3726;SDS011;1879;45.876;12.300;2024-02-23T00:56:48;40.17;;;36.37;;
3726;SDS011;1879;45.876;12.300;2024-02-23T00:59:15;46.93;;;41.83;;
3726;SDS011;1879;45.876;12.300;2024-02-23T01:01:43;41.97;;;37.67;;
3726;SDS011;1879;45.876;12.300;2024-02-23T01:04:11;41.70;;;37.40;;
3726;SDS011;1879;45.876;12.300;2024-02-23T01:06:38;42.63;;;38.17;;
3726;SDS011;1879;45.876;12.300;2024-02-23T01:09:04;43.20;;;38.50;;
3726;SDS011;1879;45.876;12.300;2024-02-23T01:11:32;43.23;;;38.83;;
3726;SDS011;1879;45.876;12.300;2024-02-23T01:13:59;40.57;;;36.60;;
3726;SDS011;1879;45.876;12.300;2024-02-23T01:16:26;38.13;;;34.47;;
3726;SDS011;1879;45.876;12.300;2024-02-23T01:18:54;37.37;;;33.53;;
3726;SDS011;1879;45.876;12.300;2024-02-23T01:21:21;41.37;;;37.07;;
3726;SDS011;1879;45.876;12.300;2024-02-23T01:23:48;39.70;;;35.33;;
3726;SDS011;1879;45.876;12.300;2024-02-23T01:26:15;35.37;;;31.53;;
3726;SDS011;1879;45.876;12.300;2024-02-23T01:28:42;30.60;;;27.70;;
3726;SDS011;1879;45.876;12.300;2024-02-23T01:31:09;34.77;;;31.47;;
3726;SDS011;1879;45.876;12.300;2024-02-23T01:33:37;29.17;;;26.40;;
3726;SDS011;1879;45.876;12.300;2024-02-23T01:36:06;28.57;;;25.90;;
3726;SDS011;1879;45.876;12.300;2024-02-23T01:38:33;27.60;;;25.00;;
3726;SDS011;1879;45.876;12.300;2024-02-23T01:41:00;29.10;;;25.00;;
3726;SDS011;1879;45.876;12.300;2024-02-23T01:43:27;25.93;;;23.60;;
3726;SDS011;1879;45.876;12.300;2024-02-23T01:45:54;23.50;;;21.30;;
3726;SDS011;1879;45.876;12.300;2024-02-23T01:48:21;22.97;;;20.87;;
3726;SDS011;1879;45.876;12.300;2024-02-23T01:50:48;22.23;;;19.97;;
3726;SDS011;1879;45.876;12.300;2024-02-23T01:53:16;18.90;;;17.17;;
3726;SDS011;1879;45.876;12.300;2024-02-23T01:55:45;18.30;;;16.60;;
3726;SDS011;1879;45.876;12.300;2024-02-23T01:58:13;17.60;;;15.80;;
3726;SDS011;1879;45.876;12.300;2024-02-23T02:00:41;17.47;;;15.87;;
3726;SDS011;1879;45.876;12.300;2024-02-23T02:03:07;14.67;;;13.37;;
3726;SDS011;1879;45.876;12.300;2024-02-23T02:05:35;15.37;;;13.97;;
3726;SDS011;1879;45.876;12.300;2024-02-23T02:08:02;13.10;;;12.00;;
3726;SDS011;1879;45.876;12.300;2024-02-23T02:10:31;13.90;;;12.73;;
3726;SDS011;1879;45.876;12.300;2024-02-23T02:13:01;11.83;;;10.83;;
3726;SDS011;1879;45.876;12.300;2024-02-23T02:15:29;13.10;;;11.90;;
3726;SDS011;1879;45.876;12.300;2024-02-23T02:17:56;11.70;;;10.60;;
3726;SDS011;1879;45.876;12.300;2024-02-23T02:20:23;12.27;;;11.13;;
3726;SDS011;1879;45.876;12.300;2024-02-23T02:22:51;12.90;;;11.80;;
3726;SDS011;1879;45.876;12.300;2024-02-23T02:25:18;14.57;;;13.20;;
3726;SDS011;1879;45.876;12.300;2024-02-23T02:27:46;13.30;;;12.10;;
3726;SDS011;1879;45.876;12.300;2024-02-23T02:30:13;13.27;;;11.97;;
3726;SDS011;1879;45.876;12.300;2024-02-23T02:32:40;12.80;;;11.60;;
3726;SDS011;1879;45.876;12.300;2024-02-23T02:35:10;11.03;;;10.13;;
3726;SDS011;1879;45.876;12.300;2024-02-23T02:37:38;11.17;;;10.20;;
3726;SDS011;1879;45.876;12.300;2024-02-23T02:40:05;11.47;;;10.53;;
3726;SDS011;1879;45.876;12.300;2024-02-23T02:42:33;11.30;;;10.23;;
3726;SDS011;1879;45.876;12.300;2024-02-23T02:45:01;10.10;;;9.30;;
3726;SDS011;1879;45.876;12.300;2024-02-23T02:47:28;10.50;;;9.50;;
3726;SDS011;1879;45.876;12.300;2024-02-23T02:49:54;10.23;;;9.33;;
3726;SDS011;1879;45.876;12.300;2024-02-23T02:52:21;9.80;;;8.90;;
3726;SDS011;1879;45.876;12.300;2024-02-23T02:54:49;10.10;;;9.27;;
3726;SDS011;1879;45.876;12.300;2024-02-23T02:57:16;9.03;;;8.33;;
3726;SDS011;1879;45.876;12.300;2024-02-23T02:59:43;9.07;;;8.27;;
3726;SDS011;1879;45.876;12.300;2024-02-23T03:02:12;7.70;;;7.10;;
3726;SDS011;1879;45.876;12.300;2024-02-23T03:04:39;7.40;;;6.83;;
3726;SDS011;1879;45.876;12.300;2024-02-23T03:07:12;8.63;;;6.60;;
3726;SDS011;1879;45.876;12.300;2024-02-23T03:09:39;6.00;;;5.50;;
3726;SDS011;1879;45.876;12.300;2024-02-23T03:12:06;6.60;;;6.00;;
3726;SDS011;1879;45.876;12.300;2024-02-23T03:14:33;6.97;;;6.37;;
3726;SDS011;1879;45.876;12.300;2024-02-23T03:17:02;6.00;;;5.50;;
3726;SDS011;1879;45.876;12.300;2024-02-23T03:19:31;6.23;;;5.80;;
3726;SDS011;1879;45.876;12.300;2024-02-23T03:21:58;6.40;;;5.90;;
3726;SDS011;1879;45.876;12.300;2024-02-23T03:24:25;5.63;;;5.13;;
3726;SDS011;1879;45.876;12.300;2024-02-23T03:26:52;5.73;;;5.20;;
3726;SDS011;1879;45.876;12.300;2024-02-23T03:29:20;6.50;;;6.00;;
3726;SDS011;1879;45.876;12.300;2024-02-23T03:31:49;6.00;;;5.50;;
3726;SDS011;1879;45.876;12.300;2024-02-23T03:34:16;6.43;;;5.87;;
3726;SDS011;1879;45.876;12.300;2024-02-23T03:36:44;7.50;;;5.67;;
3726;SDS011;1879;45.876;12.300;2024-02-23T03:39:11;6.67;;;5.93;;
3726;SDS011;1879;45.876;12.300;2024-02-23T03:41:38;7.40;;;6.70;;
3726;SDS011;1879;45.876;12.300;2024-02-23T03:44:05;8.00;;;6.10;;
3726;SDS011;1879;45.876;12.300;2024-02-23T03:46:33;8.93;;;6.93;;
3726;SDS011;1879;45.876;12.300;2024-02-23T03:49:00;8.77;;;7.10;;
3726;SDS011;1879;45.876;12.300;2024-02-23T03:51:27;9.13;;;6.43;;
3726;SDS011;1879;45.876;12.300;2024-02-23T03:53:56;7.00;;;6.23;;
3726;SDS011;1879;45.876;12.300;2024-02-23T03:56:22;7.00;;;6.30;;
3726;SDS011;1879;45.876;12.300;2024-02-23T03:58:50;8.10;;;6.40;;
3726;SDS011;1879;45.876;12.300;2024-02-23T04:01:16;8.67;;;6.77;;
3726;SDS011;1879;45.876;12.300;2024-02-23T04:03:43;7.50;;;6.40;;
3726;SDS011;1879;45.876;12.300;2024-02-23T04:06:10;8.83;;;6.77;;
3726;SDS011;1879;45.876;12.300;2024-02-23T04:08:37;8.40;;;6.97;;
3726;SDS011;1879;45.876;12.300;2024-02-23T04:11:06;8.73;;;6.80;;
3726;SDS011;1879;45.876;12.300;2024-02-23T04:13:32;7.43;;;5.67;;
3726;SDS011;1879;45.876;12.300;2024-02-23T04:16:00;6.43;;;5.87;;
3726;SDS011;1879;45.876;12.300;2024-02-23T04:18:27;7.37;;;6.60;;
3726;SDS011;1879;45.876;12.300;2024-02-23T04:20:54;6.87;;;6.17;;
3726;SDS011;1879;45.876;12.300;2024-02-23T04:23:21;7.30;;;6.53;;
3726;SDS011;1879;45.876;12.300;2024-02-23T04:25:48;7.70;;;6.90;;
3726;SDS011;1879;45.876;12.300;2024-02-23T04:28:17;6.90;;;5.80;;
3726;SDS011;1879;45.876;12.300;2024-02-23T04:30:44;6.40;;;5.80;;
3726;SDS011;1879;45.876;12.300;2024-02-23T04:33:11;6.27;;;5.77;;
3726;SDS011;1879;45.876;12.300;2024-02-23T04:35:38;6.73;;;6.03;;
3726;SDS011;1879;45.876;12.300;2024-02-23T04:38:05;7.77;;;7.07;;
3726;SDS011;1879;45.876;12.300;2024-02-23T04:40:32;7.50;;;6.80;;
3726;SDS011;1879;45.876;12.300;2024-02-23T04:42:58;8.03;;;6.40;;
3726;SDS011;1879;45.876;12.300;2024-02-23T04:45:27;8.83;;;7.73;;
3726;SDS011;1879;45.876;12.300;2024-02-23T04:47:53;8.67;;;6.80;;
3726;SDS011;1879;45.876;12.300;2024-02-23T04:50:20;6.83;;;6.13;;
3726;SDS011;1879;45.876;12.300;2024-02-23T04:52:48;7.30;;;6.60;;
3726;SDS011;1879;45.876;12.300;2024-02-23T04:55:15;7.33;;;6.17;;
3726;SDS011;1879;45.876;12.300;2024-02-23T04:57:42;6.77;;;6.13;;
3726;SDS011;1879;45.876;12.300;2024-02-23T05:00:09;7.03;;;6.33;;
3726;SDS011;1879;45.876;12.300;2024-02-23T05:02:38;7.77;;;6.90;;
3726;SDS011;1879;45.876;12.300;2024-02-23T05:05:06;7.37;;;6.67;;
3726;SDS011;1879;45.876;12.300;2024-02-23T05:07:33;8.50;;;7.50;;
3726;SDS011;1879;45.876;12.300;2024-02-23T05:10:00;9.13;;;7.50;;
3726;SDS011;1879;45.876;12.300;2024-02-23T05:12:29;9.03;;;8.13;;
3726;SDS011;1879;45.876;12.300;2024-02-23T05:14:56;8.80;;;7.90;;
3726;SDS011;1879;45.876;12.300;2024-02-23T05:17:22;9.50;;;8.47;;
3726;SDS011;1879;45.876;12.300;2024-02-23T05:19:51;8.13;;;7.43;;
3726;SDS011;1879;45.876;12.300;2024-02-23T05:22:17;8.50;;;7.70;;
3726;SDS011;1879;45.876;12.300;2024-02-23T05:24:45;15.50;;;7.70;;
3726;SDS011;1879;45.876;12.300;2024-02-23T05:27:12;14.27;;;8.57;;
3726;SDS011;1879;45.876;12.300;2024-02-23T05:29:39;7.97;;;7.23;;
3726;SDS011;1879;45.876;12.300;2024-02-23T05:32:06;9.50;;;7.80;;
3726;SDS011;1879;45.876;12.300;2024-02-23T05:34:33;10.00;;;8.23;;
3726;SDS011;1879;45.876;12.300;2024-02-23T05:37:01;10.63;;;8.60;;
3726;SDS011;1879;45.876;12.300;2024-02-23T05:39:29;8.03;;;7.23;;
3726;SDS011;1879;45.876;12.300;2024-02-23T05:41:56;9.03;;;7.70;;
3726;SDS011;1879;45.876;12.300;2024-02-23T05:44:24;10.03;;;8.60;;
3726;SDS011;1879;45.876;12.300;2024-02-23T05:46:51;10.73;;;7.70;;
3726;SDS011;1879;45.876;12.300;2024-02-23T05:49:18;7.70;;;7.00;;
3726;SDS011;1879;45.876;12.300;2024-02-23T05:51:45;11.67;;;7.43;;
3726;SDS011;1879;45.876;12.300;2024-02-23T05:54:13;10.13;;;7.63;;
3726;SDS011;1879;45.876;12.300;2024-02-23T05:56:40;8.30;;;7.40;;
3726;SDS011;1879;45.876;12.300;2024-02-23T05:59:07;9.10;;;8.20;;
3726;SDS011;1879;45.876;12.300;2024-02-23T06:01:34;9.43;;;7.20;;
3726;SDS011;1879;45.876;12.300;2024-02-23T06:04:01;7.83;;;7.10;;
3726;SDS011;1879;45.876;12.300;2024-02-23T06:06:28;11.60;;;7.47;;
3726;SDS011;1879;45.876;12.300;2024-02-23T06:08:56;9.13;;;7.60;;
3726;SDS011;1879;45.876;12.300;2024-02-23T06:11:24;10.43;;;7.63;;
3726;SDS011;1879;45.876;12.300;2024-02-23T06:13:51;9.13;;;7.50;;
3726;SDS011;1879;45.876;12.300;2024-02-23T06:16:18;8.33;;;7.53;;
3726;SDS011;1879;45.876;12.300;2024-02-23T06:18:45;8.70;;;7.80;;
3726;SDS011;1879;45.876;12.300;2024-02-23T06:21:12;8.30;;;7.07;;
3726;SDS011;1879;45.876;12.300;2024-02-23T06:23:40;9.57;;;7.27;;
3726;SDS011;1879;45.876;12.300;2024-02-23T06:26:07;11.40;;;8.47;;
3726;SDS011;1879;45.876;12.300;2024-02-23T06:28:35;8.83;;;7.93;;
3726;SDS011;1879;45.876;12.300;2024-02-23T06:31:03;10.17;;;8.10;;
3726;SDS011;1879;45.876;12.300;2024-02-23T06:33:31;9.20;;;7.60;;
3726;SDS011;1879;45.876;12.300;2024-02-23T06:35:59;11.50;;;8.00;;
3726;SDS011;1879;45.876;12.300;2024-02-23T06:38:26;9.10;;;7.80;;
3726;SDS011;1879;45.876;12.300;2024-02-23T06:40:53;11.77;;;8.33;;
3726;SDS011;1879;45.876;12.300;2024-02-23T06:43:21;10.57;;;7.97;;
3726;SDS011;1879;45.876;12.300;2024-02-23T06:45:50;9.27;;;8.30;;
3726;SDS011;1879;45.876;12.300;2024-02-23T06:48:17;9.87;;;8.87;;
3726;SDS011;1879;45.876;12.300;2024-02-23T06:50:44;12.93;;;8.87;;
3726;SDS011;1879;45.876;12.300;2024-02-23T06:53:12;11.33;;;9.00;;
3726;SDS011;1879;45.876;12.300;2024-02-23T06:55:38;11.10;;;9.93;;
3726;SDS011;1879;45.876;12.300;2024-02-23T06:58:06;10.37;;;9.27;;
3726;SDS011;1879;45.876;12.300;2024-02-23T07:00:35;10.20;;;9.20;;
3726;SDS011;1879;45.876;12.300;2024-02-23T07:03:04;12.67;;;9.00;;
3726;SDS011;1879;45.876;12.300;2024-02-23T07:05:31;10.77;;;9.43;;
3726;SDS011;1879;45.876;12.300;2024-02-23T07:07:58;13.70;;;8.53;;
3726;SDS011;1879;45.876;12.300;2024-02-23T07:10:25;10.07;;;9.07;;
3726;SDS011;1879;45.876;12.300;2024-02-23T07:12:52;11.03;;;8.80;;
3726;SDS011;1879;45.876;12.300;2024-02-23T07:15:21;10.23;;;8.13;;
3726;SDS011;1879;45.876;12.300;2024-02-23T07:17:48;10.90;;;9.03;;
3726;SDS011;1879;45.876;12.300;2024-02-23T07:20:16;10.20;;;8.90;;
3726;SDS011;1879;45.876;12.300;2024-02-23T07:22:44;12.63;;;8.73;;
3726;SDS011;1879;45.876;12.300;2024-02-23T07:25:11;11.77;;;8.77;;
3726;SDS011;1879;45.876;12.300;2024-02-23T07:27:41;9.30;;;8.40;;
3726;SDS011;1879;45.876;12.300;2024-02-23T07:30:09;11.83;;;9.07;;
3726;SDS011;1879;45.876;12.300;2024-02-23T07:32:37;11.20;;;8.40;;
3726;SDS011;1879;45.876;12.300;2024-02-23T07:35:04;11.47;;;8.23;;
3726;SDS011;1879;45.876;12.300;2024-02-23T07:37:32;9.87;;;8.20;;
3726;SDS011;1879;45.876;12.300;2024-02-23T07:39:59;13.10;;;8.03;;
3726;SDS011;1879;45.876;12.300;2024-02-23T07:42:26;9.90;;;8.63;;
3726;SDS011;1879;45.876;12.300;2024-02-23T07:44:53;12.00;;;8.70;;
3726;SDS011;1879;45.876;12.300;2024-02-23T07:47:20;10.67;;;7.93;;
3726;SDS011;1879;45.876;12.300;2024-02-23T07:49:47;11.13;;;8.40;;
3726;SDS011;1879;45.876;12.300;2024-02-23T07:52:13;13.43;;;7.50;;
3726;SDS011;1879;45.876;12.300;2024-02-23T07:54:42;8.63;;;7.83;;
3726;SDS011;1879;45.876;12.300;2024-02-23T07:57:09;7.80;;;6.27;;
3726;SDS011;1879;45.876;12.300;2024-02-23T07:59:36;15.63;;;6.43;;
3726;SDS011;1879;45.876;12.300;2024-02-23T08:02:03;11.20;;;5.70;;
3726;SDS011;1879;45.876;12.300;2024-02-23T08:04:30;6.40;;;5.50;;
3726;SDS011;1879;45.876;12.300;2024-02-23T08:06:56;8.50;;;6.30;;
3726;SDS011;1879;45.876;12.300;2024-02-23T08:09:24;8.33;;;6.83;;
3726;SDS011;1879;45.876;12.300;2024-02-23T08:11:52;7.97;;;6.50;;
3726;SDS011;1879;45.876;12.300;2024-02-23T08:14:19;8.00;;;6.30;;
3726;SDS011;1879;45.876;12.300;2024-02-23T08:16:46;9.63;;;6.43;;
3726;SDS011;1879;45.876;12.300;2024-02-23T08:19:13;7.03;;;6.37;;
3726;SDS011;1879;45.876;12.300;2024-02-23T08:21:40;7.80;;;6.20;;
3726;SDS011;1879;45.876;12.300;2024-02-23T08:24:07;10.83;;;6.97;;
3726;SDS011;1879;45.876;12.300;2024-02-23T08:26:34;9.23;;;6.70;;
3726;SDS011;1879;45.876;12.300;2024-02-23T08:29:04;8.43;;;6.43;;
3726;SDS011;1879;45.876;12.300;2024-02-23T08:31:31;10.60;;;6.27;;
3726;SDS011;1879;45.876;12.300;2024-02-23T08:33:58;7.77;;;5.60;;
3726;SDS011;1879;45.876;12.300;2024-02-23T08:36:25;8.33;;;6.57;;
3726;SDS011;1879;45.876;12.300;2024-02-23T08:38:52;11.70;;;7.10;;
3726;SDS011;1879;45.876;12.300;2024-02-23T08:41:19;10.13;;;6.87;;
3726;SDS011;1879;45.876;12.300;2024-02-23T08:43:46;9.70;;;6.67;;
3726;SDS011;1879;45.876;12.300;2024-02-23T08:46:14;7.87;;;7.17;;
3726;SDS011;1879;45.876;12.300;2024-02-23T08:48:41;9.43;;;6.80;;
3726;SDS011;1879;45.876;12.300;2024-02-23T08:51:08;8.60;;;6.10;;
3726;SDS011;1879;45.876;12.300;2024-02-23T08:53:35;9.00;;;6.60;;
3726;SDS011;1879;45.876;12.300;2024-02-23T08:56:02;6.73;;;6.13;;
3726;SDS011;1879;45.876;12.300;2024-02-23T08:58:30;7.87;;;6.40;;
3726;SDS011;1879;45.876;12.300;2024-02-23T09:00:57;8.33;;;6.77;;
3726;SDS011;1879;45.876;12.300;2024-02-23T09:03:25;7.13;;;6.17;;
3726;SDS011;1879;45.876;12.300;2024-02-23T09:05:52;9.50;;;6.80;;
3726;SDS011;1879;45.876;12.300;2024-02-23T09:08:19;8.30;;;7.00;;
3726;SDS011;1879;45.876;12.300;2024-02-23T09:10:46;11.20;;;7.87;;
3726;SDS011;1879;45.876;12.300;2024-02-23T09:13:13;11.57;;;8.10;;
3726;SDS011;1879;45.876;12.300;2024-02-23T09:15:40;9.67;;;8.40;;
3726;SDS011;1879;45.876;12.300;2024-02-23T09:18:08;10.27;;;8.60;;
3726;SDS011;1879;45.876;12.300;2024-02-23T09:20:36;13.43;;;8.07;;
3726;SDS011;1879;45.876;12.300;2024-02-23T09:23:03;10.20;;;8.00;;
3726;SDS011;1879;45.876;12.300;2024-02-23T09:25:30;10.00;;;8.30;;
3726;SDS011;1879;45.876;12.300;2024-02-23T09:27:57;10.70;;;7.73;;
3726;SDS011;1879;45.876;12.300;2024-02-23T09:30:24;8.73;;;6.93;;
3726;SDS011;1879;45.876;12.300;2024-02-23T09:32:51;9.40;;;6.93;;
3726;SDS011;1879;45.876;12.300;2024-02-23T09:35:18;10.50;;;7.00;;
3726;SDS011;1879;45.876;12.300;2024-02-23T09:37:46;11.60;;;8.60;;
3726;SDS011;1879;45.876;12.300;2024-02-23T09:40:14;10.63;;;8.33;;
3726;SDS011;1879;45.876;12.300;2024-02-23T09:42:41;9.00;;;8.13;;
3726;SDS011;1879;45.876;12.300;2024-02-23T09:45:08;11.90;;;8.80;;
3726;SDS011;1879;45.876;12.300;2024-02-23T09:47:38;8.77;;;7.87;;
3726;SDS011;1879;45.876;12.300;2024-02-23T09:50:05;10.73;;;9.17;;
3726;SDS011;1879;45.876;12.300;2024-02-23T09:52:34;9.83;;;8.73;;
3726;SDS011;1879;45.876;12.300;2024-02-23T09:55:02;10.77;;;9.20;;
3726;SDS011;1879;45.876;12.300;2024-02-23T09:57:30;9.27;;;7.73;;
3726;SDS011;1879;45.876;12.300;2024-02-23T09:59:57;13.43;;;7.80;;
3726;SDS011;1879;45.876;12.300;2024-02-23T10:02:24;10.20;;;8.57;;
3726;SDS011;1879;45.876;12.300;2024-02-23T10:04:51;10.43;;;8.47;;
3726;SDS011;1879;45.876;12.300;2024-02-23T10:07:22;9.57;;;8.63;;
3726;SDS011;1879;45.876;12.300;2024-02-23T10:09:50;12.20;;;8.73;;
3726;SDS011;1879;45.876;12.300;2024-02-23T10:12:19;10.13;;;8.90;;
3726;SDS011;1879;45.876;12.300;2024-02-23T10:14:45;10.80;;;7.70;;
3726;SDS011;1879;45.876;12.300;2024-02-23T10:17:12;10.00;;;7.43;;
3726;SDS011;1879;45.876;12.300;2024-02-23T10:19:39;10.50;;;8.83;;
3726;SDS011;1879;45.876;12.300;2024-02-23T10:22:06;12.37;;;6.90;;
3726;SDS011;1879;45.876;12.300;2024-02-23T10:24:33;10.83;;;7.47;;
3726;SDS011;1879;45.876;12.300;2024-02-23T10:27:00;17.37;;;7.70;;
3726;SDS011;1879;45.876;12.300;2024-02-23T10:29:29;11.23;;;7.20;;
3726;SDS011;1879;45.876;12.300;2024-02-23T10:31:57;11.17;;;7.50;;
3726;SDS011;1879;45.876;12.300;2024-02-23T10:34:24;10.40;;;8.43;;
3726;SDS011;1879;45.876;12.300;2024-02-23T10:36:55;10.87;;;8.00;;
3726;SDS011;1879;45.876;12.300;2024-02-23T10:39:23;9.93;;;7.93;;
3726;SDS011;1879;45.876;12.300;2024-02-23T10:41:56;11.93;;;7.87;;
3726;SDS011;1879;45.876;12.300;2024-02-23T10:44:26;12.77;;;8.03;;
3726;SDS011;1879;45.876;12.300;2024-02-23T10:46:56;12.27;;;8.17;;
3726;SDS011;1879;45.876;12.300;2024-02-23T10:49:25;8.23;;;7.40;;
3726;SDS011;1879;45.876;12.300;2024-02-23T10:51:53;11.73;;;8.30;;
3726;SDS011;1879;45.876;12.300;2024-02-23T10:54:21;14.73;;;7.93;;
3726;SDS011;1879;45.876;12.300;2024-02-23T10:56:48;9.83;;;8.77;;
3726;SDS011;1879;45.876;12.300;2024-02-23T10:59:16;15.33;;;9.00;;
3726;SDS011;1879;45.876;12.300;2024-02-23T11:01:46;11.27;;;9.13;;
3726;SDS011;1879;45.876;12.300;2024-02-23T11:04:15;12.60;;;10.50;;
3726;SDS011;1879;45.876;12.300;2024-02-23T11:06:48;15.70;;;10.80;;
3726;SDS011;1879;45.876;12.300;2024-02-23T11:09:15;15.63;;;10.10;;
3726;SDS011;1879;45.876;12.300;2024-02-23T11:11:50;14.13;;;10.43;;
3726;SDS011;1879;45.876;12.300;2024-02-23T11:14:28;18.43;;;13.07;;
3726;SDS011;1879;45.876;12.300;2024-02-23T11:16:58;13.13;;;9.07;;
3726;SDS011;1879;45.876;12.300;2024-02-23T11:19:31;13.73;;;10.90;;
3726;SDS011;1879;45.876;12.300;2024-02-23T11:21:59;13.10;;;9.50;;
3726;SDS011;1879;45.876;12.300;2024-02-23T11:24:28;16.73;;;12.47;;
3726;SDS011;1879;45.876;12.300;2024-02-23T11:26:56;12.60;;;11.13;;
3726;SDS011;1879;45.876;12.300;2024-02-23T11:29:25;14.37;;;11.20;;
3726;SDS011;1879;45.876;12.300;2024-02-23T11:31:53;14.70;;;9.93;;
3726;SDS011;1879;45.876;12.300;2024-02-23T11:34:27;11.33;;;10.03;;
3726;SDS011;1879;45.876;12.300;2024-02-23T11:36:54;11.33;;;9.87;;
3726;SDS011;1879;45.876;12.300;2024-02-23T11:39:22;11.37;;;9.77;;
3726;SDS011;1879;45.876;12.300;2024-02-23T11:41:50;12.63;;;8.93;;
3726;SDS011;1879;45.876;12.300;2024-02-23T11:44:17;12.13;;;11.03;;
3726;SDS011;1879;45.876;12.300;2024-02-23T11:46:44;13.97;;;11.80;;
3726;SDS011;1879;45.876;12.300;2024-02-23T11:49:12;14.47;;;12.50;;
3726;SDS011;1879;45.876;12.300;2024-02-23T11:51:41;14.03;;;12.63;;
3726;SDS011;1879;45.876;12.300;2024-02-23T11:54:09;14.77;;;10.40;;
3726;SDS011;1879;45.876;12.300;2024-02-23T11:56:37;15.77;;;14.17;;
3726;SDS011;1879;45.876;12.300;2024-02-23T11:59:03;14.03;;;12.50;;
3726;SDS011;1879;45.876;12.300;2024-02-23T12:01:31;16.43;;;10.50;;
3726;SDS011;1879;45.876;12.300;2024-02-23T12:03:58;11.30;;;9.80;;
3726;SDS011;1879;45.876;12.300;2024-02-23T12:06:25;13.23;;;10.73;;
3726;SDS011;1879;45.876;12.300;2024-02-23T12:08:57;15.83;;;11.23;;
3726;SDS011;1879;45.876;12.300;2024-02-23T12:11:24;14.30;;;11.07;;
3726;SDS011;1879;45.876;12.300;2024-02-23T12:13:51;13.23;;;11.33;;
3726;SDS011;1879;45.876;12.300;2024-02-23T12:16:18;16.53;;;11.10;;
3726;SDS011;1879;45.876;12.300;2024-02-23T12:18:46;16.93;;;12.70;;
3726;SDS011;1879;45.876;12.300;2024-02-23T12:21:20;14.90;;;12.30;;
3726;SDS011;1879;45.876;12.300;2024-02-23T12:23:48;15.80;;;12.07;;
3726;SDS011;1879;45.876;12.300;2024-02-23T12:26:18;16.53;;;11.60;;
3726;SDS011;1879;45.876;12.300;2024-02-23T12:28:45;16.47;;;11.00;;
3726;SDS011;1879;45.876;12.300;2024-02-23T12:31:13;12.63;;;10.67;;
3726;SDS011;1879;45.876;12.300;2024-02-23T12:33:40;13.83;;;10.93;;
3726;SDS011;1879;45.876;12.300;2024-02-23T12:36:12;15.43;;;11.40;;
3726;SDS011;1879;45.876;12.300;2024-02-23T12:38:40;15.37;;;10.37;;
3726;SDS011;1879;45.876;12.300;2024-02-23T12:41:06;13.37;;;12.03;;
3726;SDS011;1879;45.876;12.300;2024-02-23T12:43:35;14.23;;;10.50;;
3726;SDS011;1879;45.876;12.300;2024-02-23T12:46:02;20.00;;;14.47;;
3726;SDS011;1879;45.876;12.300;2024-02-23T12:48:29;18.30;;;15.77;;
3726;SDS011;1879;45.876;12.300;2024-02-23T12:50:56;19.77;;;16.90;;
3726;SDS011;1879;45.876;12.300;2024-02-23T12:53:33;16.30;;;14.53;;
3726;SDS011;1879;45.876;12.300;2024-02-23T12:56:01;18.33;;;15.57;;
3726;SDS011;1879;45.876;12.300;2024-02-23T12:58:29;16.17;;;14.53;;
3726;SDS011;1879;45.876;12.300;2024-02-23T13:00:57;17.17;;;15.47;;
3726;SDS011;1879;45.876;12.300;2024-02-23T13:03:24;19.67;;;15.60;;
3726;SDS011;1879;45.876;12.300;2024-02-23T13:05:52;19.57;;;16.10;;
3726;SDS011;1879;45.876;12.300;2024-02-23T13:08:19;17.83;;;15.60;;
3726;SDS011;1879;45.876;12.300;2024-02-23T13:10:47;20.97;;;17.60;;
3726;SDS011;1879;45.876;12.300;2024-02-23T13:13:13;16.13;;;14.07;;
3726;SDS011;1879;45.876;12.300;2024-02-23T13:15:42;16.27;;;14.53;;
3726;SDS011;1879;45.876;12.300;2024-02-23T13:18:10;17.97;;;14.20;;
3726;SDS011;1879;45.876;12.300;2024-02-23T13:20:37;16.60;;;14.13;;
3726;SDS011;1879;45.876;12.300;2024-02-23T13:23:06;18.37;;;14.30;;
3726;SDS011;1879;45.876;12.300;2024-02-23T13:25:33;19.07;;;16.27;;
3726;SDS011;1879;45.876;12.300;2024-02-23T13:28:01;20.50;;;15.40;;
3726;SDS011;1879;45.876;12.300;2024-02-23T13:30:29;18.10;;;16.37;;
3726;SDS011;1879;45.876;12.300;2024-02-23T13:32:56;18.33;;;16.13;;
3726;SDS011;1879;45.876;12.300;2024-02-23T13:35:24;19.40;;;17.30;;
3726;SDS011;1879;45.876;12.300;2024-02-23T13:37:51;23.20;;;19.57;;
3726;SDS011;1879;45.876;12.300;2024-02-23T13:40:18;20.97;;;18.73;;
3726;SDS011;1879;45.876;12.300;2024-02-23T13:42:45;19.30;;;17.33;;
3726;SDS011;1879;45.876;12.300;2024-02-23T13:45:14;18.23;;;16.47;;
3726;SDS011;1879;45.876;12.300;2024-02-23T13:47:42;17.40;;;15.70;;
3726;SDS011;1879;45.876;12.300;2024-02-23T13:50:10;19.63;;;17.60;;
3726;SDS011;1879;45.876;12.300;2024-02-23T13:52:40;21.23;;;19.43;;
3726;SDS011;1879;45.876;12.300;2024-02-23T13:55:07;20.23;;;18.30;;
3726;SDS011;1879;45.876;12.300;2024-02-23T13:57:35;21.00;;;18.97;;
3726;SDS011;1879;45.876;12.300;2024-02-23T14:00:02;19.70;;;17.90;;
3726;SDS011;1879;45.876;12.300;2024-02-23T14:02:31;20.53;;;18.20;;
3726;SDS011;1879;45.876;12.300;2024-02-23T14:05:00;18.50;;;16.67;;
3726;SDS011;1879;45.876;12.300;2024-02-23T14:07:29;17.70;;;15.90;;
3726;SDS011;1879;45.876;12.300;2024-02-23T14:09:57;17.50;;;15.87;;
3726;SDS011;1879;45.876;12.300;2024-02-23T14:12:24;21.17;;;17.13;;
3726;SDS011;1879;45.876;12.300;2024-02-23T14:14:51;18.57;;;16.57;;
3726;SDS011;1879;45.876;12.300;2024-02-23T14:17:18;20.70;;;18.30;;
3726;SDS011;1879;45.876;12.300;2024-02-23T14:19:45;19.40;;;17.60;;
3726;SDS011;1879;45.876;12.300;2024-02-23T14:22:12;19.40;;;17.50;;
3726;SDS011;1879;45.876;12.300;2024-02-23T14:24:39;22.33;;;17.30;;
3726;SDS011;1879;45.876;12.300;2024-02-23T14:27:07;21.00;;;19.10;;
3726;SDS011;1879;45.876;12.300;2024-02-23T14:29:34;18.23;;;16.50;;
3726;SDS011;1879;45.876;12.300;2024-02-23T14:32:01;20.83;;;18.73;;
3726;SDS011;1879;45.876;12.300;2024-02-23T14:34:29;18.97;;;16.97;;
3726;SDS011;1879;45.876;12.300;2024-02-23T14:36:58;23.73;;;21.17;;
3726;SDS011;1879;45.876;12.300;2024-02-23T14:39:25;21.10;;;19.20;;
3726;SDS011;1879;45.876;12.300;2024-02-23T14:41:52;23.70;;;21.40;;
3726;SDS011;1879;45.876;12.300;2024-02-23T14:44:20;20.60;;;18.80;;
3726;SDS011;1879;45.876;12.300;2024-02-23T14:46:47;24.83;;;22.10;;